createdAt,value
2023-03-17T00:01:44.642Z,2.30
2023-03-17T00:04:12.292Z,1.87
2023-03-17T00:06:41.419Z,1.90
2023-03-17T00:09:15.509Z,2.10
2023-03-17T00:11:43.455Z,1.80
2023-03-17T00:14:09.910Z,2.22
2023-03-17T00:16:42.342Z,1.67
2023-03-17T00:19:17.094Z,2.28
2023-03-17T00:21:45.927Z,2.00
2023-03-17T00:24:14.851Z,2.10
2023-03-17T00:26:42.524Z,1.90
2023-03-17T00:29:09.609Z,2.10
2023-03-17T00:31:36.841Z,2.03
2023-03-17T00:34:03.312Z,2.40
2023-03-17T00:36:32.696Z,1.90
2023-03-17T00:38:59.892Z,2.58
2023-03-17T00:41:27.264Z,1.87
2023-03-17T00:43:54.035Z,2.00
2023-03-17T00:46:28.779Z,1.70
2023-03-17T00:48:55.325Z,2.40
2023-03-17T00:51:23.270Z,2.05
2023-03-17T00:53:49.722Z,2.00
2023-03-17T00:56:19.097Z,2.13
2023-03-17T00:58:46.480Z,2.30
2023-03-17T01:01:13.564Z,2.25
2023-03-17T01:03:41.447Z,2.03
2023-03-17T01:06:11.352Z,2.10
2023-03-17T01:08:39.118Z,1.90
2023-03-17T01:11:05.689Z,1.98
2023-03-17T01:13:32.136Z,2.30
2023-03-17T01:15:58.512Z,1.98
2023-03-17T01:18:25.140Z,1.77
2023-03-17T01:20:53.261Z,2.13
2023-03-17T01:23:19.822Z,1.83
2023-03-17T01:25:46.207Z,2.17
2023-03-17T01:28:17.978Z,1.92
2023-03-17T01:30:45.165Z,2.00
2023-03-17T01:33:12.925Z,2.05
2023-03-17T01:35:41.249Z,2.10
2023-03-17T01:38:08.446Z,1.90
2023-03-17T01:40:38.922Z,1.90
2023-03-17T01:43:11.035Z,1.97
2023-03-17T01:46:15.156Z,1.83
2023-03-17T01:49:19.322Z,1.65
2023-03-17T01:52:04.617Z,1.77
2023-03-17T01:54:37.387Z,1.80
2023-03-17T01:57:10.535Z,1.77
2023-03-17T01:59:43.799Z,2.10
2023-03-17T02:02:12.577Z,1.90
2023-03-17T02:04:40.328Z,1.90
2023-03-17T02:07:07.314Z,1.60
2023-03-17T02:09:35.056Z,1.87
2023-03-17T02:12:03.743Z,1.80
2023-03-17T02:14:30.273Z,2.05
2023-03-17T02:16:57.365Z,1.67
2023-03-17T02:19:24.135Z,1.95
2023-03-17T02:21:53.448Z,1.50
2023-03-17T02:24:26.335Z,1.70
2023-03-17T02:26:55.598Z,1.85
2023-03-17T02:29:23.273Z,1.45
2023-03-17T02:31:50.690Z,2.00
2023-03-17T02:34:17.274Z,2.33
2023-03-17T02:36:44.133Z,1.50
2023-03-17T02:39:11.112Z,1.70
2023-03-17T02:41:38.009Z,1.90
2023-03-17T02:44:04.843Z,1.77
2023-03-17T02:46:31.584Z,1.57
2023-03-17T02:48:58.479Z,1.48
2023-03-17T02:51:24.894Z,1.98
2023-03-17T02:53:51.329Z,1.83
2023-03-17T02:56:17.729Z,1.52
2023-03-17T02:58:44.190Z,1.43
2023-03-17T03:01:10.612Z,1.50
2023-03-17T03:03:37.145Z,1.65
2023-03-17T03:06:03.704Z,1.75
2023-03-17T03:08:30.839Z,2.25
2023-03-17T03:10:57.278Z,1.63
2023-03-17T03:13:23.746Z,1.75
2023-03-17T03:15:50.161Z,1.65
2023-03-17T03:18:16.626Z,1.52
2023-03-17T03:20:44.668Z,1.80
2023-03-17T03:23:11.413Z,1.60
2023-03-17T03:25:38.631Z,1.55
2023-03-17T03:28:08.558Z,2.00
2023-03-17T03:30:36.790Z,1.70
2023-03-17T03:33:03.344Z,1.67
2023-03-17T03:35:30.169Z,1.33
2023-03-17T03:37:57.353Z,1.75
2023-03-17T03:40:25.346Z,1.42
2023-03-17T03:42:51.772Z,1.77
2023-03-17T03:45:18.326Z,1.48
2023-03-17T03:47:44.725Z,1.67
2023-03-17T03:50:11.582Z,1.58
2023-03-17T03:52:38.107Z,1.60
2023-03-17T03:55:05.061Z,1.58
2023-03-17T03:57:31.441Z,1.45
2023-03-17T03:59:57.899Z,1.63
2023-03-17T04:02:24.302Z,1.58
2023-03-17T04:04:50.800Z,1.40
2023-03-17T04:07:17.253Z,1.50
2023-03-17T04:09:43.636Z,1.35
2023-03-17T04:12:10.460Z,1.23
2023-03-17T04:14:36.928Z,1.42
2023-03-17T04:17:05.097Z,1.65
2023-03-17T04:19:31.516Z,1.30
2023-03-17T04:21:58.241Z,1.30
2023-03-17T04:24:25.178Z,1.30
2023-03-17T04:26:51.914Z,1.23
2023-03-17T04:29:19.022Z,1.65
2023-03-17T04:31:46.003Z,1.42
2023-03-17T04:34:16.234Z,1.38
2023-03-17T04:36:44.377Z,1.57
2023-03-17T04:39:11.028Z,1.20
2023-03-17T04:41:37.685Z,1.45
2023-03-17T04:44:04.646Z,1.40
2023-03-17T04:46:31.816Z,1.58
2023-03-17T04:48:58.297Z,1.50
2023-03-17T04:51:24.773Z,1.33
2023-03-17T04:53:51.445Z,1.38
2023-03-17T04:56:17.894Z,1.25
2023-03-17T04:58:45.102Z,1.23
2023-03-17T05:01:11.610Z,1.27
2023-03-17T05:03:38.190Z,1.20
2023-03-17T05:06:05.014Z,1.45
2023-03-17T05:08:31.621Z,1.42
2023-03-17T05:10:58.583Z,1.50
2023-03-17T05:13:26.296Z,1.50
2023-03-17T05:15:54.860Z,1.20
2023-03-17T05:18:24.211Z,1.30
2023-03-17T05:20:51.051Z,1.67
2023-03-17T05:23:17.589Z,1.65
2023-03-17T05:25:44.079Z,1.30
2023-03-17T05:28:10.456Z,1.40
2023-03-17T05:30:37.059Z,1.50
2023-03-17T05:33:03.811Z,1.30
2023-03-17T05:35:30.303Z,1.15
2023-03-17T05:37:56.765Z,1.40
2023-03-17T05:40:23.978Z,1.40
2023-03-17T05:42:51.390Z,1.40
2023-03-17T05:45:18.624Z,1.60
2023-03-17T05:47:45.718Z,1.40
2023-03-17T05:50:12.865Z,1.30
2023-03-17T05:52:39.557Z,1.48
2023-03-17T05:55:07.721Z,1.42
2023-03-17T05:57:34.751Z,1.25
2023-03-17T06:00:02.564Z,1.40
2023-03-17T06:02:29.302Z,1.13
2023-03-17T06:04:55.808Z,1.48
2023-03-17T06:07:22.290Z,1.35
2023-03-17T06:09:48.847Z,1.52
2023-03-17T06:12:16.053Z,1.50
2023-03-17T06:14:42.553Z,1.60
2023-03-17T06:17:09.065Z,1.60
2023-03-17T06:19:35.621Z,1.63
2023-03-17T06:22:02.004Z,1.35
2023-03-17T06:24:28.368Z,1.38
2023-03-17T06:26:54.714Z,1.27
2023-03-17T06:29:21.543Z,1.60
2023-03-17T06:31:50.770Z,1.42
2023-03-17T06:34:18.682Z,1.60
2023-03-17T06:36:45.407Z,1.50
2023-03-17T06:39:12.853Z,1.50
2023-03-17T06:41:39.483Z,1.50
2023-03-17T06:44:07.214Z,1.40
2023-03-17T06:46:34.156Z,1.20
2023-03-17T06:49:01.307Z,1.50
2023-03-17T06:51:27.806Z,1.80
2023-03-17T06:53:54.179Z,1.52
2023-03-17T06:56:29.838Z,1.70
2023-03-17T06:58:56.777Z,1.60
2023-03-17T07:01:23.493Z,1.55
2023-03-17T07:03:49.929Z,1.60
2023-03-17T07:06:16.324Z,1.48
2023-03-17T07:08:42.703Z,1.60
2023-03-17T07:11:09.886Z,1.50
2023-03-17T07:13:38.691Z,1.45
2023-03-17T07:16:07.035Z,1.57
2023-03-17T07:18:33.689Z,1.95
2023-03-17T07:21:01.760Z,1.60
2023-03-17T07:23:29.405Z,1.50
2023-03-17T07:25:57.307Z,1.50
2023-03-17T07:28:24.433Z,1.70
2023-03-17T07:30:51.068Z,1.80
2023-03-17T07:33:21.036Z,1.83
2023-03-17T07:35:48.827Z,1.88
2023-03-17T07:38:17.709Z,1.88
2023-03-17T07:40:47.595Z,2.40
2023-03-17T07:43:17.579Z,1.90
2023-03-17T07:45:45.122Z,1.98
2023-03-17T07:48:11.568Z,1.90
2023-03-17T07:50:38.179Z,1.80
2023-03-17T07:53:04.760Z,2.00
2023-03-17T07:55:32.914Z,1.90
2023-03-17T07:58:00.048Z,1.83
2023-03-17T08:00:27.808Z,1.90
2023-03-17T08:03:08.902Z,1.90
2023-03-17T08:05:36.440Z,1.93
2023-03-17T08:08:02.840Z,2.25
2023-03-17T08:10:29.675Z,2.08
2023-03-17T08:12:56.487Z,1.70
2023-03-17T08:15:22.865Z,1.98
2023-03-17T08:17:49.366Z,2.17
2023-03-17T08:20:15.905Z,1.83
2023-03-17T08:22:42.433Z,1.80
2023-03-17T08:25:09.737Z,2.10
2023-03-17T08:27:36.205Z,1.90
2023-03-17T08:30:03.195Z,2.30
2023-03-17T08:32:29.689Z,2.10
2023-03-17T08:34:56.280Z,1.80
2023-03-17T08:37:24.598Z,2.10
2023-03-17T08:39:51.096Z,2.30
2023-03-17T08:42:17.540Z,2.47
2023-03-17T08:44:44.208Z,2.00
2023-03-17T08:47:10.919Z,2.03
2023-03-17T08:49:37.359Z,1.80
2023-03-17T08:52:04.253Z,2.17
2023-03-17T08:54:30.678Z,1.97
2023-03-17T08:56:58.355Z,2.28
2023-03-17T08:59:24.843Z,2.30
2023-03-17T09:01:51.296Z,2.03
2023-03-17T09:04:17.749Z,2.03
2023-03-17T09:07:01.904Z,2.20
2023-03-17T09:09:30.788Z,2.47
2023-03-17T09:11:57.139Z,2.00
2023-03-17T09:14:24.804Z,2.10
2023-03-17T09:16:51.358Z,2.47
2023-03-17T09:19:17.940Z,2.13
2023-03-17T09:21:44.980Z,2.40
2023-03-17T09:24:11.701Z,2.22
2023-03-17T09:26:38.292Z,2.42
2023-03-17T09:29:05.244Z,2.50
2023-03-17T09:31:32.388Z,1.97
2023-03-17T09:33:59.782Z,2.00
2023-03-17T09:36:26.183Z,2.08
2023-03-17T09:38:52.644Z,2.28
2023-03-17T09:41:24.690Z,2.58
2023-03-17T09:43:58.887Z,2.20
2023-03-17T09:46:48.579Z,2.70
2023-03-17T09:49:39.781Z,2.33
2023-03-17T09:52:18.570Z,2.53
2023-03-17T09:54:49.445Z,2.40
2023-03-17T09:57:39.187Z,2.40
2023-03-17T10:00:23.081Z,2.40
2023-03-17T10:02:49.519Z,2.60
2023-03-17T10:05:35.635Z,2.65
2023-03-17T10:08:31.359Z,2.38
2023-03-17T10:11:04.327Z,2.67
2023-03-17T10:14:02.213Z,2.50
2023-03-17T10:16:58.758Z,2.83
2023-03-17T10:19:43.909Z,2.33
2023-03-17T10:22:28.536Z,2.40
2023-03-17T10:25:01.703Z,1.83
2023-03-17T10:27:33.936Z,2.00
2023-03-17T10:30:00.310Z,2.20
2023-03-17T10:32:27.395Z,2.63
2023-03-17T10:34:55.586Z,2.45
2023-03-17T10:37:24.304Z,2.50
2023-03-17T10:39:54.356Z,2.72
2023-03-17T10:42:29.563Z,2.33
2023-03-17T10:45:17.856Z,3.28
2023-03-17T10:47:48.055Z,3.78
2023-03-17T10:50:32.700Z,7.27
2023-03-17T10:53:18.319Z,3.13
2023-03-17T10:55:53.358Z,3.03
2023-03-17T10:58:36.202Z,2.35
2023-03-17T11:01:17.476Z,2.50
2023-03-17T11:03:44.121Z,2.80
2023-03-17T11:06:16.860Z,2.70
2023-03-17T11:08:55.150Z,3.78
2023-03-17T11:11:26.223Z,2.85
2023-03-17T11:14:16.761Z,2.80
2023-03-17T11:16:55.665Z,2.63
2023-03-17T11:19:48.603Z,2.60
2023-03-17T11:22:20.765Z,3.60
2023-03-17T11:24:59.333Z,3.03
2023-03-17T11:27:47.352Z,3.13
2023-03-17T11:30:34.836Z,2.87
2023-03-17T11:33:21.781Z,2.67
2023-03-17T11:36:06.714Z,4.13
2023-03-17T11:38:43.197Z,2.47
2023-03-17T11:41:15.473Z,4.63
2023-03-17T11:43:51.047Z,2.87
2023-03-17T11:46:32.737Z,4.32
2023-03-17T11:48:58.990Z,2.78
2023-03-17T11:51:33.383Z,2.70
2023-03-17T11:54:30.110Z,3.22
2023-03-17T11:57:04.475Z,2.60
2023-03-17T11:59:40.678Z,3.28
2023-03-17T12:02:22.992Z,3.17
2023-03-17T12:04:53.166Z,3.25
2023-03-17T12:07:22.488Z,3.20
2023-03-17T12:09:59.846Z,3.70
2023-03-17T12:12:33.672Z,2.70
2023-03-17T12:15:02.145Z,2.97
2023-03-17T12:17:36.534Z,4.70
2023-03-17T12:20:12.549Z,4.07
2023-03-17T12:23:12.997Z,3.03
2023-03-17T12:25:57.740Z,3.05
2023-03-17T12:28:28.754Z,3.80
2023-03-17T12:31:12.875Z,3.30
2023-03-17T12:33:59.191Z,4.47
2023-03-17T12:36:26.097Z,2.90
2023-03-17T12:39:01.571Z,3.30
2023-03-17T12:41:49.671Z,3.10
2023-03-17T12:44:34.301Z,3.60
2023-03-17T12:47:00.916Z,3.22
2023-03-17T12:49:46.003Z,3.90
2023-03-17T12:52:24.593Z,3.33
2023-03-17T12:54:52.307Z,4.15
2023-03-17T12:57:21.320Z,3.30
2023-03-17T13:00:00.923Z,3.72
2023-03-17T13:02:27.242Z,3.70
2023-03-17T13:05:00.849Z,3.40
2023-03-17T13:07:36.708Z,3.33
2023-03-17T13:10:03.041Z,3.33
2023-03-17T13:12:44.424Z,3.75
2023-03-17T13:15:36.046Z,3.63
2023-03-17T13:18:17.676Z,3.45
2023-03-17T13:20:57.538Z,3.53
2023-03-17T13:23:57.785Z,3.20
2023-03-17T13:26:55.350Z,3.90
2023-03-17T13:29:38.730Z,3.30
2023-03-17T13:32:17.081Z,3.92
2023-03-17T13:34:49.967Z,3.22
2023-03-17T13:37:28.492Z,3.08
2023-03-17T13:40:18.970Z,3.80
2023-03-17T13:43:06.935Z,3.67
2023-03-17T13:45:38.350Z,3.47
2023-03-17T13:48:30.898Z,3.85
2023-03-17T13:51:20.626Z,3.42
2023-03-17T13:54:24.404Z,3.83
2023-03-17T13:56:53.042Z,3.77
2023-03-17T13:59:39.655Z,3.65
2023-03-17T14:02:21.422Z,3.50
2023-03-17T14:05:00.841Z,3.60
2023-03-17T14:07:37.071Z,3.35
2023-03-17T14:10:05.424Z,3.27
2023-03-17T14:12:57.832Z,3.88
2023-03-17T14:15:34.920Z,3.70
2023-03-17T14:18:15.400Z,3.80
2023-03-17T14:20:52.781Z,4.38
2023-03-17T14:23:19.167Z,3.97
2023-03-17T14:25:45.682Z,3.58
2023-03-17T14:28:16.951Z,4.18
2023-03-17T14:31:18.853Z,3.53
2023-03-17T14:33:45.490Z,3.70
2023-03-17T14:36:14.598Z,3.27
2023-03-17T14:38:50.419Z,3.28
2023-03-17T14:41:22.532Z,3.35
2023-03-17T14:43:52.164Z,3.58
2023-03-17T14:46:22.465Z,3.63
2023-03-17T14:48:52.496Z,4.00
2023-03-17T14:51:30.458Z,3.45
2023-03-17T14:54:00.839Z,3.22
2023-03-17T14:56:34.858Z,3.50
2023-03-17T14:59:30.893Z,3.80
2023-03-17T15:02:00.767Z,3.50
2023-03-17T15:04:32.974Z,4.10
2023-03-17T15:07:06.608Z,3.58
2023-03-17T15:09:40.669Z,3.55
2023-03-17T15:12:23.029Z,3.70
2023-03-17T15:14:54.215Z,3.40
2023-03-17T15:17:26.104Z,3.58
2023-03-17T15:19:54.905Z,3.28
2023-03-17T15:22:24.086Z,3.88
2023-03-17T15:25:01.696Z,3.60
2023-03-17T15:27:29.962Z,3.23
2023-03-17T15:29:56.552Z,3.58
2023-03-17T15:32:26.819Z,3.50
2023-03-17T15:34:58.922Z,3.65
2023-03-17T15:37:27.829Z,4.00
2023-03-17T15:39:55.732Z,3.43
2023-03-17T15:42:25.380Z,3.50
2023-03-17T15:44:52.453Z,3.58
2023-03-17T15:47:25.498Z,3.92
2023-03-17T15:49:57.347Z,3.58
2023-03-17T15:52:27.164Z,3.70
2023-03-17T15:54:56.201Z,3.78
2023-03-17T15:57:22.958Z,3.70
2023-03-17T15:59:49.639Z,3.60
2023-03-17T16:02:34.111Z,3.45
2023-03-17T16:05:02.846Z,3.30
2023-03-17T16:07:30.811Z,3.88
2023-03-17T16:09:57.616Z,3.15
2023-03-17T16:12:24.741Z,3.28
2023-03-17T16:14:51.509Z,3.10
2023-03-17T16:17:20.808Z,3.40
2023-03-17T16:19:47.848Z,3.60
2023-03-17T16:22:39.252Z,3.30
2023-03-17T16:25:22.777Z,3.42
2023-03-17T16:27:49.261Z,4.15
2023-03-17T16:30:25.029Z,3.30
2023-03-17T16:32:52.346Z,3.20
2023-03-17T16:35:21.941Z,4.55
2023-03-17T16:37:52.323Z,4.25
2023-03-17T16:40:21.976Z,4.25
2023-03-17T16:42:49.136Z,4.00
2023-03-17T16:45:21.769Z,3.97
2023-03-17T16:47:50.894Z,3.42
2023-03-17T16:50:19.440Z,3.83
2023-03-17T16:52:45.931Z,4.82
2023-03-17T16:55:15.991Z,6.60
2023-03-17T16:57:44.644Z,6.60
2023-03-17T17:00:19.542Z,8.23
2023-03-17T17:02:49.155Z,6.22
2023-03-17T17:05:19.274Z,5.13
2023-03-17T17:07:46.473Z,5.73
2023-03-17T17:10:15.414Z,5.38
2023-03-17T17:12:41.836Z,5.10
2023-03-17T17:15:10.205Z,4.88
2023-03-17T17:17:39.263Z,5.25
2023-03-17T17:20:19.924Z,4.93
2023-03-17T17:22:46.407Z,4.80
2023-03-17T17:25:12.803Z,5.72
2023-03-17T17:27:41.950Z,5.05
2023-03-17T17:30:11.660Z,5.45
2023-03-17T17:32:38.198Z,4.53
2023-03-17T17:35:05.443Z,4.85
2023-03-17T17:37:32.353Z,3.83
2023-03-17T17:39:58.810Z,4.80
2023-03-17T17:42:25.452Z,4.95
2023-03-17T17:44:52.130Z,5.20
2023-03-17T17:47:18.945Z,4.65
2023-03-17T17:49:45.474Z,5.25
2023-03-17T17:52:11.930Z,4.70
2023-03-17T17:54:38.266Z,4.80
2023-03-17T17:57:04.741Z,5.30
2023-03-17T17:59:31.244Z,5.43
2023-03-17T18:01:57.627Z,5.65
2023-03-17T18:04:24.047Z,6.00
2023-03-17T18:06:50.466Z,6.53
2023-03-17T18:09:18.129Z,6.73
2023-03-17T18:11:44.555Z,5.45
2023-03-17T18:14:11.412Z,5.28
2023-03-17T18:16:38.215Z,6.57
2023-03-17T18:19:06.801Z,7.43
2023-03-17T18:21:34.651Z,9.30
2023-03-17T18:24:01.070Z,9.50
2023-03-17T18:26:28.515Z,8.70
2023-03-17T18:28:54.949Z,8.32
2023-03-17T18:31:46.446Z,8.68
2023-03-17T18:34:18.034Z,9.30
2023-03-17T18:36:46.746Z,8.98
2023-03-17T18:39:16.568Z,10.30
2023-03-17T18:41:44.553Z,9.32
2023-03-17T18:44:11.276Z,10.52
2023-03-17T18:46:38.101Z,10.53
2023-03-17T18:49:05.610Z,8.95
2023-03-17T18:51:32.788Z,9.23
2023-03-17T18:53:59.292Z,10.93
2023-03-17T18:56:29.114Z,10.18
2023-03-17T18:58:56.681Z,9.60
2023-03-17T19:01:23.544Z,10.10
2023-03-17T19:03:50.748Z,9.25
2023-03-17T19:06:20.193Z,8.90
2023-03-17T19:08:47.827Z,9.50
2023-03-17T19:11:16.034Z,9.17
2023-03-17T19:13:42.909Z,8.18
2023-03-17T19:16:10.401Z,8.40
2023-03-17T19:18:40.808Z,9.73
2023-03-17T19:21:09.549Z,9.50
2023-03-17T19:23:38.080Z,9.50
2023-03-17T19:26:05.593Z,10.77
2023-03-17T19:28:33.160Z,10.75
2023-03-17T19:30:59.646Z,9.00
2023-03-17T19:33:26.154Z,9.38
2023-03-17T19:35:58.500Z,8.43
2023-03-17T19:38:26.977Z,7.57
2023-03-17T19:40:53.637Z,6.93
2023-03-17T19:43:39.089Z,7.88
2023-03-17T19:46:06.235Z,8.32
2023-03-17T19:48:33.418Z,7.57
2023-03-17T19:51:00.121Z,6.57
2023-03-17T19:53:26.491Z,6.70
2023-03-17T19:55:52.850Z,5.88
2023-03-17T19:58:19.222Z,6.53
2023-03-17T20:00:45.612Z,5.90
2023-03-17T20:03:12.646Z,6.38
2023-03-17T20:05:39.129Z,6.57
2023-03-17T20:08:07.714Z,5.30
2023-03-17T20:10:34.068Z,5.25
2023-03-17T20:13:00.458Z,5.53
2023-03-17T20:15:26.776Z,6.28
2023-03-17T20:17:53.767Z,6.95
2023-03-17T20:20:20.088Z,5.60
2023-03-17T20:22:46.649Z,4.72
2023-03-17T20:25:13.110Z,4.27
2023-03-17T20:27:40.098Z,4.50
2023-03-17T20:30:08.458Z,4.47
2023-03-17T20:32:35.527Z,4.88
2023-03-17T20:35:02.685Z,5.20
2023-03-17T20:37:29.113Z,4.67
2023-03-17T20:39:57.311Z,4.28
2023-03-17T20:42:23.963Z,4.60
2023-03-17T20:44:53.022Z,4.03
2023-03-17T20:47:20.869Z,4.30
2023-03-17T20:49:47.831Z,4.37
2023-03-17T20:52:14.934Z,4.70
2023-03-17T20:54:42.059Z,4.43
2023-03-17T20:57:12.065Z,4.70
2023-03-17T20:59:38.878Z,5.60
2023-03-17T21:02:05.457Z,5.27
2023-03-17T21:04:31.827Z,5.30
2023-03-17T21:06:58.244Z,5.18
2023-03-17T21:09:24.619Z,4.57
2023-03-17T21:11:51.198Z,5.13
2023-03-17T21:14:17.605Z,6.30
2023-03-17T21:16:44.975Z,5.78
2023-03-17T21:19:16.283Z,4.85
2023-03-17T21:21:43.059Z,5.75
2023-03-17T21:24:24.007Z,6.82
2023-03-17T21:26:50.460Z,6.63
2023-03-17T21:29:16.916Z,5.60
2023-03-17T21:31:43.344Z,5.75
2023-03-17T21:34:09.751Z,5.65
2023-03-17T21:36:36.252Z,5.53
2023-03-17T21:39:02.791Z,5.40
2023-03-17T21:41:35.698Z,5.40
2023-03-17T21:44:03.397Z,5.05
2023-03-17T21:46:31.493Z,5.32
2023-03-17T21:48:58.533Z,5.28
2023-03-17T21:51:25.409Z,5.63
2023-03-17T21:53:52.865Z,4.97
2023-03-17T21:56:20.362Z,5.55
2023-03-17T21:58:48.845Z,5.72
2023-03-17T22:01:16.269Z,5.18
2023-03-17T22:03:43.380Z,5.70
2023-03-17T22:06:10.518Z,5.32
2023-03-17T22:08:37.381Z,5.30
2023-03-17T22:11:13.116Z,4.93
2023-03-17T22:13:40.112Z,5.03
2023-03-17T22:16:07.469Z,5.50
2023-03-17T22:18:33.871Z,4.68
2023-03-17T22:21:00.584Z,6.05
2023-03-17T22:23:28.906Z,5.40
2023-03-17T22:25:56.383Z,5.57
2023-03-17T22:28:23.374Z,5.60
2023-03-17T22:30:50.853Z,5.28
2023-03-17T22:33:18.049Z,5.22
2023-03-17T22:35:44.561Z,5.35
2023-03-17T22:38:12.990Z,5.90
2023-03-17T22:40:39.856Z,5.70
2023-03-17T22:43:06.241Z,5.53
2023-03-17T22:45:32.541Z,5.38
2023-03-17T22:47:58.895Z,4.80
2023-03-17T22:50:25.906Z,5.97
2023-03-17T22:52:52.517Z,5.13
2023-03-17T22:55:18.943Z,5.57
2023-03-17T22:57:45.914Z,5.38
2023-03-17T23:00:16.640Z,5.90
2023-03-17T23:02:44.477Z,5.57
2023-03-17T23:05:11.630Z,5.80
2023-03-17T23:07:49.563Z,5.07
2023-03-17T23:10:21.705Z,6.53
2023-03-17T23:12:48.392Z,5.57
2023-03-17T23:15:14.918Z,5.80
2023-03-17T23:17:41.555Z,5.47
2023-03-17T23:20:08.710Z,6.20
2023-03-17T23:22:35.103Z,5.60
2023-03-17T23:25:01.780Z,6.10
2023-03-17T23:27:28.224Z,5.25
2023-03-17T23:29:54.790Z,6.10
2023-03-17T23:32:21.185Z,5.82
2023-03-17T23:34:47.866Z,6.10
2023-03-17T23:37:14.403Z,5.53
2023-03-17T23:39:41.465Z,5.57
2023-03-17T23:42:07.841Z,5.83
2023-03-17T23:44:34.200Z,5.45
2023-03-17T23:47:00.587Z,6.03
2023-03-17T23:49:27.284Z,5.65
2023-03-17T23:51:54.390Z,5.93
2023-03-17T23:54:20.792Z,5.50
2023-03-17T23:56:47.960Z,5.80
2023-03-17T23:59:14.387Z,6.07
